createdAt,value
2022-10-25T00:02:03.151Z,98689.16
2022-10-25T00:04:31.070Z,98685.66
2022-10-25T00:06:59.226Z,98704.13
2022-10-25T00:09:29.418Z,98690.75
2022-10-25T00:11:57.296Z,98715.97
2022-10-25T00:14:25.487Z,98728.13
2022-10-25T00:16:54.792Z,98717.78
2022-10-25T00:19:22.911Z,98736.78
2022-10-25T00:21:50.890Z,98735.41
2022-10-25T00:24:18.848Z,98743.78
2022-10-25T00:26:47.026Z,98736.78
2022-10-25T00:29:14.878Z,98732.75
2022-10-25T00:31:45.019Z,98721.44
2022-10-25T00:34:14.444Z,98735.97
2022-10-25T00:36:42.298Z,98759.41
2022-10-25T00:39:10.732Z,98749.50
2022-10-25T00:41:38.746Z,98784.53
2022-10-25T00:44:44.850Z,98777.56
2022-10-25T00:47:19.145Z,98790.69
2022-10-25T00:49:54.484Z,98811.50
2022-10-25T00:52:23.081Z,98787.66
2022-10-25T00:54:53.764Z,98827.00
2022-10-25T00:57:30.844Z,98830.34
2022-10-25T01:00:01.558Z,98863.31
2022-10-25T01:02:29.711Z,98854.66
2022-10-25T01:04:59.631Z,98836.91
2022-10-25T01:07:27.624Z,98848.78
2022-10-25T01:09:55.759Z,98830.66
2022-10-25T01:12:23.941Z,98850.31
2022-10-25T01:14:54.006Z,98874.91
2022-10-25T01:17:30.925Z,98841.84
2022-10-25T01:20:36.567Z,98872.25
2022-10-25T01:23:19.037Z,98870.59
2022-10-25T01:26:18.414Z,98907.72
2022-10-25T01:29:06.720Z,98919.88
2022-10-25T01:31:42.745Z,98900.75
2022-10-25T01:34:16.476Z,98904.38
2022-10-25T01:36:52.668Z,98907.19
2022-10-25T01:39:26.404Z,98936.22
2022-10-25T01:42:06.168Z,98958.91
2022-10-25T01:44:43.645Z,98960.56
2022-10-25T01:47:18.593Z,98963.38
2022-10-25T01:49:51.676Z,98954.53
2022-10-25T01:52:22.991Z,98965.88
2022-10-25T01:54:51.138Z,98961.56
2022-10-25T01:57:32.479Z,98961.56
2022-10-25T02:00:11.519Z,98963.38
2022-10-25T02:03:11.840Z,98978.19
2022-10-25T02:05:50.198Z,99007.00
2022-10-25T02:08:29.167Z,99026.00
2022-10-25T02:11:06.701Z,99010.78
2022-10-25T02:13:45.705Z,99054.81
2022-10-25T02:16:18.317Z,99057.00
2022-10-25T02:18:53.312Z,99051.84
2022-10-25T02:21:23.814Z,99073.81
2022-10-25T02:23:53.022Z,99092.56
2022-10-25T02:26:22.553Z,99078.84
2022-10-25T02:28:50.607Z,99115.22
2022-10-25T02:31:20.921Z,99097.31
2022-10-25T02:33:50.257Z,99113.53
2022-10-25T02:36:21.692Z,99146.53
2022-10-25T02:38:50.751Z,99138.16
2022-10-25T02:41:19.587Z,99150.50
2022-10-25T02:43:47.965Z,99136.22
2022-10-25T02:46:18.379Z,99156.88
2022-10-25T02:48:46.888Z,99206.41
2022-10-25T02:51:17.401Z,99229.13
2022-10-25T02:53:47.979Z,99210.59
2022-10-25T02:56:19.312Z,99208.09
2022-10-25T02:58:48.709Z,99211.88
2022-10-25T03:01:18.157Z,99215.09
2022-10-25T03:03:46.667Z,99217.91
2022-10-25T03:06:16.494Z,99266.31
2022-10-25T03:08:46.340Z,99234.13
2022-10-25T03:11:17.052Z,99244.22
2022-10-25T03:13:45.628Z,99240.31
2022-10-25T03:16:13.793Z,99237.78
2022-10-25T03:18:44.316Z,99236.13
2022-10-25T03:21:12.398Z,99254.59
2022-10-25T03:23:41.700Z,99282.00
2022-10-25T03:26:09.725Z,99276.28
2022-10-25T03:28:37.785Z,99269.97
2022-10-25T03:31:12.360Z,99286.34
2022-10-25T03:33:41.086Z,99277.81
2022-10-25T03:36:09.243Z,99323.19
2022-10-25T03:38:37.240Z,99321.66
2022-10-25T03:41:07.364Z,99335.66
2022-10-25T03:43:35.424Z,99345.16
2022-10-25T03:46:03.387Z,99369.13
2022-10-25T03:48:31.271Z,99358.47
2022-10-25T03:51:02.036Z,99364.63
2022-10-25T03:53:30.016Z,99356.91
2022-10-25T03:55:58.046Z,99348.09
2022-10-25T03:58:27.620Z,99338.84
2022-10-25T04:00:55.654Z,99384.50
2022-10-25T04:03:24.144Z,99404.69
2022-10-25T04:05:51.992Z,99396.00
2022-10-25T04:08:19.946Z,99385.94
2022-10-25T04:10:48.594Z,99374.84
2022-10-25T04:13:16.418Z,99351.72
2022-10-25T04:15:46.121Z,99356.78
2022-10-25T04:18:14.015Z,99381.16
2022-10-25T04:20:42.033Z,99346.41
2022-10-25T04:23:09.962Z,99357.06
2022-10-25T04:25:40.402Z,99359.47
2022-10-25T04:28:08.398Z,99355.09
2022-10-25T04:30:38.674Z,99407.50
2022-10-25T04:33:10.369Z,99429.34
2022-10-25T04:35:38.445Z,99405.69
2022-10-25T04:38:06.375Z,99425.56
2022-10-25T04:40:34.463Z,99412.38
2022-10-25T04:43:02.715Z,99407.50
2022-10-25T04:45:30.949Z,99400.78
2022-10-25T04:47:58.997Z,99414.50
2022-10-25T04:50:30.278Z,99449.25
2022-10-25T04:53:00.856Z,99432.72
2022-10-25T04:55:28.722Z,99407.50
2022-10-25T04:57:56.579Z,99406.50
2022-10-25T05:00:25.357Z,99398.81
2022-10-25T05:02:56.074Z,99397.97
2022-10-25T05:05:25.646Z,99390.97
2022-10-25T05:07:55.428Z,99406.13
2022-10-25T05:10:23.442Z,99399.81
2022-10-25T05:12:55.779Z,99454.56
2022-10-25T05:15:26.821Z,99411.16
2022-10-25T05:17:58.493Z,99443.38
2022-10-25T05:20:26.689Z,99433.56
2022-10-25T05:22:56.244Z,99420.13
2022-10-25T05:25:24.246Z,99391.41
2022-10-25T05:27:52.247Z,99390.69
2022-10-25T05:30:20.346Z,99377.22
2022-10-25T05:32:48.387Z,99413.53
2022-10-25T05:35:16.477Z,99366.31
2022-10-25T05:37:45.890Z,99356.81
2022-10-25T05:40:18.174Z,99389.44
2022-10-25T05:42:46.512Z,99397.44
2022-10-25T05:45:14.602Z,99396.28
2022-10-25T05:47:42.641Z,99408.09
2022-10-25T05:50:10.784Z,99390.44
2022-10-25T05:52:38.620Z,99397.28
2022-10-25T05:55:07.343Z,99401.34
2022-10-25T05:57:36.694Z,99373.63
2022-10-25T06:00:05.783Z,99407.78
2022-10-25T06:02:33.770Z,99396.59
2022-10-25T06:05:03.084Z,99401.78
2022-10-25T06:07:30.882Z,99395.03
2022-10-25T06:09:58.758Z,99400.78
2022-10-25T06:12:29.576Z,99405.13
2022-10-25T06:14:59.046Z,99409.47
2022-10-25T06:17:26.964Z,99402.75
2022-10-25T06:19:55.180Z,99420.13
2022-10-25T06:22:26.255Z,99419.28
2022-10-25T06:24:54.536Z,99442.53
2022-10-25T06:27:28.142Z,99419.28
2022-10-25T06:29:56.109Z,99428.81
2022-10-25T06:32:26.525Z,99449.81
2022-10-25T06:34:54.383Z,99440.59
2022-10-25T06:37:22.406Z,99452.63
2022-10-25T06:39:50.377Z,99481.19
2022-10-25T06:42:19.170Z,99485.41
2022-10-25T06:48:13.843Z,99507.88
2022-10-25T06:50:48.469Z,99537.59
2022-10-25T06:53:23.332Z,99548.81
2022-10-25T06:55:51.425Z,99554.97
2022-10-25T06:58:19.477Z,99509.81
2022-10-25T07:00:49.625Z,99507.84
2022-10-25T07:03:19.233Z,99522.16
2022-10-25T07:05:47.095Z,99494.41
2022-10-25T07:08:15.051Z,99577.13
2022-10-25T07:10:42.919Z,99594.06
2022-10-25T07:13:10.912Z,99572.09
2022-10-25T07:15:41.439Z,99563.81
2022-10-25T07:18:11.271Z,99602.06
2022-10-25T07:20:40.668Z,99641.88
2022-10-25T07:23:08.917Z,99632.50
2022-10-25T07:25:37.264Z,99650.03
2022-10-25T07:28:05.540Z,99630.97
2022-10-25T07:30:33.571Z,99647.22
2022-10-25T07:33:03.142Z,99639.38
2022-10-25T07:35:35.541Z,99672.34
2022-10-25T07:38:13.202Z,99688.19
2022-10-25T07:40:44.116Z,99691.84
2022-10-25T07:43:11.930Z,99731.97
2022-10-25T07:45:49.280Z,99743.34
2022-10-25T07:48:18.787Z,99790.09
2022-10-25T07:50:46.984Z,99776.03
2022-10-25T07:53:19.737Z,99761.16
2022-10-25T07:55:51.704Z,99799.63
2022-10-25T07:58:20.201Z,99850.00
2022-10-25T08:00:48.555Z,99821.53
2022-10-25T08:03:18.305Z,99843.13
2022-10-25T08:05:47.489Z,99857.19
2022-10-25T08:08:16.202Z,99878.94
2022-10-25T08:10:46.088Z,99875.56
2022-10-25T08:13:13.969Z,99939.91
2022-10-25T08:15:41.986Z,99954.66
2022-10-25T08:18:10.694Z,99919.84
2022-10-25T08:21:07.572Z,99931.19
2022-10-25T08:23:26.665Z,99940.91
2022-10-25T08:25:55.926Z,99942.59
2022-10-25T08:28:24.010Z,99944.25
2022-10-25T08:30:53.953Z,99906.31
2022-10-25T08:33:49.056Z,99909.69
2022-10-25T08:36:16.943Z,99907.88
2022-10-25T08:38:47.886Z,99895.66
2022-10-25T08:41:23.147Z,99975.72
2022-10-25T08:44:13.292Z,99977.41
2022-10-25T08:46:45.687Z,99928.94
2022-10-25T08:49:22.303Z,99982.75
2022-10-25T08:51:52.314Z,99998.50
2022-10-25T08:54:25.525Z,100014.22
2022-10-25T08:57:15.063Z,100024.34
2022-10-25T08:59:48.154Z,100090.97
2022-10-25T09:02:26.435Z,100132.91
2022-10-25T09:04:54.953Z,100181.84
2022-10-25T09:08:04.291Z,100237.56
2022-10-25T09:10:42.996Z,100268.81
2022-10-25T09:13:46.679Z,100227.16
2022-10-25T09:16:47.515Z,100195.31
2022-10-25T09:19:19.345Z,100209.38
2022-10-25T09:21:51.593Z,100305.06
2022-10-25T09:24:24.159Z,100425.94
2022-10-25T09:27:05.134Z,100411.22
2022-10-25T09:29:38.317Z,100495.38
2022-10-25T09:32:16.795Z,100514.94
2022-10-25T09:34:45.678Z,100536.63
2022-10-25T09:37:18.668Z,100571.34
2022-10-25T09:39:54.376Z,100719.88
2022-10-25T09:42:27.411Z,100763.84
2022-10-25T09:45:27.349Z,100780.09
2022-10-25T09:48:30.230Z,100898.72
2022-10-25T09:51:28.448Z,101176.38
2022-10-25T09:54:10.762Z,101177.69
2022-10-25T09:56:43.456Z,101122.78
2022-10-25T09:59:15.607Z,100962.16
2022-10-25T10:01:45.048Z,100872.41
2022-10-25T10:04:26.811Z,100807.47
2022-10-25T10:07:04.842Z,100762.56
2022-10-25T10:09:33.587Z,100725.22
2022-10-25T10:12:05.545Z,100640.53
2022-10-25T10:15:06.867Z,100627.69
2022-10-25T10:17:36.302Z,100580.00
2022-10-25T10:20:15.818Z,100578.03
2022-10-25T10:22:51.235Z,100516.22
2022-10-25T10:25:27.206Z,100473.41
2022-10-25T10:27:58.729Z,100487.34
2022-10-25T10:30:29.049Z,100459.31
2022-10-25T10:33:01.096Z,100445.66
2022-10-25T10:35:32.379Z,100441.00
2022-10-25T10:38:23.315Z,100417.72
2022-10-25T10:40:52.405Z,100421.69
2022-10-25T10:43:27.393Z,100457.19
2022-10-25T10:46:02.541Z,100462.06
2022-10-25T10:48:41.835Z,100474.50
2022-10-25T10:51:43.056Z,100481.63
2022-10-25T10:54:25.591Z,100542.25
2022-10-25T10:56:58.710Z,100606.28
2022-10-25T10:59:39.921Z,100652.53
2022-10-25T11:02:25.343Z,100777.81
2022-10-25T11:04:56.521Z,100837.13
2022-10-25T11:07:30.537Z,100853.91
2022-10-25T11:10:21.207Z,100859.16
2022-10-25T11:13:07.239Z,100816.75
2022-10-25T11:15:41.692Z,100766.41
2022-10-25T11:18:13.201Z,100719.88
2022-10-25T11:20:52.019Z,100679.16
2022-10-25T11:23:31.657Z,100608.97
2022-10-25T11:26:08.338Z,100566.84
2022-10-25T11:28:47.067Z,100535.38
2022-10-25T11:31:27.960Z,100491.56
2022-10-25T11:34:10.179Z,100454.63
2022-10-25T11:37:05.291Z,100444.91
2022-10-25T11:39:48.343Z,100489.03
2022-10-25T11:42:42.956Z,100507.34
2022-10-25T11:45:23.200Z,100501.56
2022-10-25T11:48:02.478Z,100470.41
2022-10-25T11:50:40.059Z,100500.44
2022-10-25T11:53:25.019Z,100502.41
2022-10-25T11:55:57.554Z,100465.31
2022-10-25T11:58:36.288Z,100478.88
2022-10-25T12:01:16.159Z,100454.38
2022-10-25T12:04:00.311Z,100441.00
2022-10-25T12:06:37.924Z,100421.81
2022-10-25T12:09:16.566Z,100403.38
2022-10-25T12:11:48.504Z,100400.72
2022-10-25T12:14:25.175Z,100344.53
2022-10-25T12:16:53.295Z,100301.44
2022-10-25T12:19:27.265Z,100220.75
2022-10-25T12:22:01.900Z,100286.53
2022-10-25T12:24:43.918Z,100258.38
2022-10-25T12:27:13.956Z,100262.75
2022-10-25T12:29:53.640Z,100196.44
2022-10-25T12:32:24.472Z,100214.78
2022-10-25T12:34:55.342Z,100168.06
2022-10-25T12:37:30.630Z,100206.06
2022-10-25T12:40:01.300Z,100162.72
2022-10-25T12:42:33.993Z,100162.53
2022-10-25T12:45:41.998Z,100192.41
2022-10-25T12:48:22.870Z,100172.28
2022-10-25T12:51:09.500Z,100148.94
2022-10-25T12:54:12.978Z,100169.47
2022-10-25T12:56:56.987Z,100138.81
2022-10-25T12:59:40.888Z,100132.91
2022-10-25T13:02:25.648Z,100150.06
2022-10-25T13:05:29.639Z,100143.31
2022-10-25T13:08:00.109Z,100147.53
2022-10-25T13:10:29.163Z,100150.06
2022-10-25T13:13:04.720Z,100155.41
2022-10-25T13:15:43.201Z,100149.34
2022-10-25T13:18:27.363Z,100150.91
2022-10-25T13:20:55.842Z,100159.63
2022-10-25T13:24:00.728Z,100159.63
2022-10-25T13:26:34.642Z,100131.91
2022-10-25T13:29:25.440Z,100147.53
2022-10-25T13:32:10.328Z,100138.81
2022-10-25T13:34:40.422Z,100148.38
2022-10-25T13:37:47.758Z,100134.31
2022-10-25T13:40:25.732Z,100157.09
2022-10-25T13:43:03.946Z,100124.91
2022-10-25T13:45:40.207Z,100115.44
2022-10-25T13:48:17.852Z,100116.03
2022-10-25T13:50:48.933Z,100101.38
2022-10-25T13:53:22.767Z,100077.91
2022-10-25T13:55:59.723Z,100074.53
2022-10-25T13:58:44.362Z,100040.34
2022-10-25T14:02:00.694Z,100017.59
2022-10-25T14:04:40.442Z,99976.72
2022-10-25T14:07:43.456Z,99960.13
2022-10-25T14:10:22.276Z,99989.78
2022-10-25T14:12:53.795Z,99985.44
2022-10-25T14:15:38.464Z,99968.72
2022-10-25T14:18:18.223Z,99952.97
2022-10-25T14:20:54.782Z,99947.22
2022-10-25T14:23:26.408Z,99943.13
2022-10-25T14:25:59.157Z,99939.50
2022-10-25T14:28:31.723Z,99941.88
2022-10-25T14:31:01.696Z,99919.13
2022-10-25T14:33:32.083Z,99913.34
2022-10-25T14:36:12.437Z,99954.94
2022-10-25T14:38:52.419Z,99958.31
2022-10-25T14:41:25.375Z,99878.66
2022-10-25T14:43:53.950Z,99928.81
2022-10-25T14:46:23.198Z,99896.63
2022-10-25T14:48:55.416Z,99864.19
2022-10-25T14:51:28.116Z,99860.81
2022-10-25T14:53:58.893Z,99857.19
2022-10-25T14:56:30.933Z,99860.13
2022-10-25T14:58:59.375Z,99872.91
2022-10-25T15:01:27.881Z,99844.13
2022-10-25T15:04:00.346Z,99851.97
2022-10-25T15:06:32.719Z,99857.19
2022-10-25T15:12:24.909Z,99830.22
2022-10-25T15:14:53.474Z,99817.03
2022-10-25T15:17:29.128Z,99828.41
2022-10-25T15:20:02.949Z,99850.44
2022-10-25T15:22:35.027Z,99832.34
2022-10-25T15:25:24.174Z,99811.97
2022-10-25T15:27:55.862Z,99799.63
2022-10-25T15:30:57.695Z,99811.97
2022-10-25T15:33:59.078Z,99804.66
2022-10-25T15:36:35.111Z,99766.34
2022-10-25T15:42:27.319Z,99742.34
2022-10-25T15:44:55.669Z,99737.00
2022-10-25T15:47:30.050Z,99813.94
2022-10-25T15:49:58.812Z,99822.38
2022-10-25T15:52:27.266Z,99816.47
2022-10-25T15:54:56.551Z,99809.31
2022-10-25T15:57:27.452Z,99787.53
2022-10-25T15:59:55.394Z,99787.81
2022-10-25T16:02:27.032Z,99809.44
2022-10-25T16:04:55.076Z,99791.19
2022-10-25T16:07:23.318Z,99794.81
2022-10-25T16:09:52.214Z,99767.63
2022-10-25T16:12:26.224Z,99791.31
2022-10-25T16:14:54.551Z,99775.75
2022-10-25T16:17:22.683Z,99768.44
2022-10-25T16:19:50.660Z,99795.41
2022-10-25T16:22:18.690Z,99747.69
2022-10-25T16:25:04.055Z,99767.59
2022-10-25T16:27:33.446Z,99783.19
2022-10-25T16:30:19.407Z,99788.66
2022-10-25T16:32:47.997Z,99736.88
2022-10-25T16:35:18.791Z,99706.84
2022-10-25T16:37:46.953Z,99772.09
2022-10-25T16:40:16.700Z,99787.53
2022-10-25T16:42:46.735Z,99753.00
2022-10-25T16:45:18.639Z,99768.16
2022-10-25T16:47:46.673Z,99774.47
2022-10-25T16:50:15.110Z,99752.16
2022-10-25T16:52:43.205Z,99749.94
2022-10-25T16:55:11.917Z,99750.19
2022-10-25T16:57:39.781Z,99756.38
2022-10-25T17:00:11.014Z,99768.44
2022-10-25T17:02:39.340Z,99754.69
2022-10-25T17:05:08.552Z,99764.09
2022-10-25T17:07:38.034Z,99777.44
2022-10-25T17:10:10.436Z,99762.41
2022-10-25T17:12:44.091Z,99759.03
2022-10-25T17:15:14.275Z,99719.63
2022-10-25T17:17:42.931Z,99727.06
2022-10-25T17:20:13.074Z,99745.16
2022-10-25T17:22:43.265Z,99747.69
2022-10-25T17:25:12.650Z,99738.97
2022-10-25T17:27:45.471Z,99738.97
2022-10-25T17:30:17.333Z,99711.78
2022-10-25T17:32:45.461Z,99751.34
2022-10-25T17:35:13.650Z,99735.63
2022-10-25T17:37:43.697Z,99725.09
2022-10-25T17:40:13.800Z,99702.66
2022-10-25T17:42:41.684Z,99703.91
2022-10-25T17:45:10.555Z,99688.50
2022-10-25T17:47:42.612Z,99653.25
2022-10-25T17:50:14.973Z,99660.69
2022-10-25T17:52:43.048Z,99665.88
2022-10-25T17:55:11.843Z,99679.78
2022-10-25T17:57:39.953Z,99666.72
2022-10-25T18:00:14.096Z,99631.13
2022-10-25T18:02:50.487Z,99671.34
2022-10-25T18:05:20.984Z,99696.63
2022-10-25T18:07:50.007Z,99687.78
2022-10-25T18:10:18.386Z,99688.78
2022-10-25T18:12:46.921Z,99676.69
2022-10-25T18:15:15.152Z,99689.47
2022-10-25T18:17:47.969Z,99677.38
2022-10-25T18:20:17.244Z,99694.66
2022-10-25T18:22:45.819Z,99698.03
2022-10-25T18:25:13.785Z,99679.66
2022-10-25T18:27:42.066Z,99662.38
2022-10-25T18:30:11.852Z,99610.50
2022-10-25T18:32:39.919Z,99620.59
2022-10-25T18:35:10.411Z,99646.66
2022-10-25T18:37:38.349Z,99624.22
2022-10-25T18:40:08.053Z,99651.44
2022-10-25T18:42:36.270Z,99614.44
2022-10-25T18:45:05.468Z,99657.75
2022-10-25T18:47:33.470Z,99653.97
2022-10-25T18:50:01.504Z,99667.69
2022-10-25T18:52:30.681Z,99669.28
2022-10-25T18:54:58.673Z,99632.94
2022-10-25T18:57:26.658Z,99600.69
2022-10-25T18:59:54.576Z,99615.53
2022-10-25T19:02:22.534Z,99628.44
2022-10-25T19:04:51.086Z,99626.34
2022-10-25T19:07:18.958Z,99646.94
2022-10-25T19:09:48.367Z,99627.59
2022-10-25T19:12:19.097Z,99619.88
2022-10-25T19:14:49.347Z,99577.13
2022-10-25T19:17:17.563Z,99569.41
2022-10-25T19:19:45.701Z,99586.09
2022-10-25T19:22:14.955Z,99561.84
2022-10-25T19:24:43.990Z,99533.09
2022-10-25T19:27:13.197Z,99514.84
2022-10-25T19:29:41.533Z,99500.13
2022-10-25T19:32:09.692Z,99498.47
2022-10-25T19:34:37.779Z,99499.16
2022-10-25T19:37:08.251Z,99459.09
2022-10-25T19:39:37.881Z,99391.59
2022-10-25T19:42:06.166Z,99446.06
2022-10-25T19:44:35.385Z,99419.97
2022-10-25T19:47:03.421Z,99375.88
2022-10-25T19:49:31.375Z,99351.81
2022-10-25T19:51:59.500Z,99325.75
2022-10-25T19:54:27.476Z,99350.81
2022-10-25T19:56:55.620Z,99320.16
2022-10-25T19:59:23.676Z,99308.38
2022-10-25T20:01:53.139Z,99305.44
2022-10-25T20:04:21.508Z,99278.59
2022-10-25T20:06:49.462Z,99294.94
2022-10-25T20:09:17.610Z,99287.38
2022-10-25T20:11:49.053Z,99280.38
2022-10-25T20:14:17.021Z,99244.28
2022-10-25T20:16:45.873Z,99224.16
2022-10-25T20:19:15.319Z,99228.34
2022-10-25T20:21:43.755Z,99235.31
2022-10-25T20:24:12.220Z,99248.34
2022-10-25T20:26:42.252Z,99226.94
2022-10-25T20:29:18.646Z,99219.94
2022-10-25T20:31:53.092Z,99199.25
2022-10-25T20:34:27.839Z,99218.97
2022-10-25T20:36:55.796Z,99232.28
2022-10-25T20:39:23.784Z,99255.03
2022-10-25T20:41:55.009Z,99239.66
2022-10-25T20:44:26.232Z,99208.19
2022-10-25T20:46:54.360Z,99217.97
2022-10-25T20:49:23.717Z,99238.69
2022-10-25T20:51:54.011Z,99253.66
2022-10-25T20:54:21.869Z,99237.31
2022-10-25T20:56:49.659Z,99204.28
2022-10-25T20:59:20.064Z,99248.19
2022-10-25T21:01:48.173Z,99227.63
2022-10-25T21:04:25.724Z,99254.34
2022-10-25T21:07:05.482Z,99237.00
2022-10-25T21:09:33.283Z,99263.88
2022-10-25T21:12:01.506Z,99275.34
2022-10-25T21:14:29.576Z,99268.22
2022-10-25T21:16:57.474Z,99263.03
2022-10-25T21:19:25.523Z,99231.97
2022-10-25T21:21:53.475Z,99235.63
2022-10-25T21:24:22.841Z,99217.28
2022-10-25T21:26:51.760Z,99216.31
2022-10-25T21:29:19.817Z,99185.22
2022-10-25T21:31:49.190Z,99169.56
2022-10-25T21:36:46.213Z,99197.28
2022-10-25T21:39:32.249Z,99184.94
2022-10-25T21:42:13.153Z,99165.53
2022-10-25T21:44:41.359Z,99185.53
2022-10-25T21:47:09.228Z,99206.94
2022-10-25T21:49:37.236Z,99171.81
2022-10-25T21:52:07.506Z,99150.56
2022-10-25T21:54:36.128Z,99162.56
2022-10-25T21:57:04.162Z,99146.22
2022-10-25T21:59:33.356Z,99174.59
2022-10-25T22:02:01.461Z,99175.56
2022-10-25T22:04:29.468Z,99169.56
2022-10-25T22:06:57.496Z,99156.16
2022-10-25T22:09:25.660Z,99164.25
2022-10-25T22:11:53.703Z,99157.25
2022-10-25T22:14:21.637Z,99149.56
2022-10-25T22:16:50.961Z,99138.09
2022-10-25T22:19:20.919Z,99166.75
2022-10-25T22:21:51.387Z,99201.47
2022-10-25T22:24:19.409Z,99175.72
2022-10-25T22:26:50.650Z,99194.47
2022-10-25T22:29:18.720Z,99147.59
2022-10-25T22:31:46.680Z,99185.78
2022-10-25T22:34:16.025Z,99114.81
2022-10-25T22:36:43.878Z,99130.00
2022-10-25T22:39:12.055Z,99168.44
2022-10-25T22:41:40.116Z,99199.94
2022-10-25T22:44:08.455Z,99165.66
2022-10-25T22:46:36.899Z,99161.72
2022-10-25T22:49:07.361Z,99160.75
2022-10-25T22:51:37.480Z,99190.25
2022-10-25T22:54:05.674Z,99182.88
2022-10-25T22:56:34.634Z,99150.41
2022-10-25T22:59:05.934Z,99131.53
2022-10-25T23:01:35.571Z,99138.53
2022-10-25T23:04:04.561Z,99145.22
2022-10-25T23:06:35.307Z,99103.56
2022-10-25T23:09:08.962Z,99129.41
2022-10-25T23:11:39.119Z,99122.19
2022-10-25T23:14:13.380Z,99035.53
2022-10-25T23:16:44.556Z,99070.56
2022-10-25T23:19:12.493Z,99070.16
2022-10-25T23:21:40.498Z,99077.00
2022-10-25T23:24:11.070Z,99104.69
2022-10-25T23:26:39.070Z,99126.22
2022-10-25T23:29:07.064Z,99123.72
2022-10-25T23:31:35.181Z,99117.25
2022-10-25T23:34:02.972Z,99095.19
2022-10-25T23:36:37.764Z,99108.88
2022-10-25T23:39:07.325Z,99119.06
2022-10-25T23:41:36.630Z,99126.91
2022-10-25T23:44:04.816Z,99095.34
2022-10-25T23:46:32.770Z,99100.78
2022-10-25T23:49:00.797Z,99093.22
2022-10-25T23:51:29.075Z,99085.53
2022-10-25T23:53:57.114Z,99061.34
2022-10-25T23:56:25.121Z,99065.50
2022-10-25T23:58:54.557Z,99073.34
